createdAt,value
2023-10-06T00:02:22.237Z,11.72
2023-10-06T00:04:49.476Z,11.69
2023-10-06T00:07:16.500Z,11.66
2023-10-06T00:09:45.835Z,11.63
2023-10-06T00:12:14.884Z,11.66
2023-10-06T00:14:42.307Z,11.58
2023-10-06T00:17:12.960Z,11.53
2023-10-06T00:19:40.606Z,11.49
2023-10-06T00:22:16.226Z,11.44
2023-10-06T00:24:43.427Z,11.50
2023-10-06T00:27:13.077Z,11.46
2023-10-06T00:29:41.028Z,11.55
2023-10-06T00:32:23.138Z,11.45
2023-10-06T00:34:50.536Z,11.48
2023-10-06T00:37:18.306Z,11.50
2023-10-06T00:39:45.510Z,11.47
2023-10-06T00:42:16.141Z,11.48
2023-10-06T00:44:46.610Z,11.52
2023-10-06T00:47:14.872Z,11.64
2023-10-06T00:49:44.632Z,11.59
2023-10-06T00:52:16.872Z,11.56
2023-10-06T00:54:45.156Z,11.55
2023-10-06T00:57:13.933Z,11.56
2023-10-06T00:59:42.786Z,11.56
2023-10-06T01:02:13.085Z,11.55
2023-10-06T01:04:47.243Z,11.49
2023-10-06T01:07:15.119Z,11.40
2023-10-06T01:09:57.463Z,11.37
2023-10-06T01:12:30.864Z,11.40
2023-10-06T01:15:06.862Z,11.34
2023-10-06T01:17:34.560Z,11.36
2023-10-06T01:20:01.402Z,11.36
2023-10-06T01:22:31.992Z,11.31
2023-10-06T01:25:05.792Z,11.26
2023-10-06T01:27:32.494Z,11.25
2023-10-06T01:30:17.270Z,11.21
2023-10-06T01:32:45.439Z,11.22
2023-10-06T01:35:13.800Z,11.22
2023-10-06T01:37:42.290Z,11.21
2023-10-06T01:40:30.646Z,11.18
2023-10-06T01:42:58.011Z,11.09
2023-10-06T01:45:24.872Z,11.04
2023-10-06T01:47:59.270Z,11.04
2023-10-06T01:50:27.924Z,11.02
2023-10-06T01:52:57.208Z,11.00
2023-10-06T01:55:25.921Z,10.93
2023-10-06T01:57:52.902Z,10.90
2023-10-06T02:00:27.506Z,10.95
2023-10-06T02:02:54.622Z,11.03
2023-10-06T02:05:21.649Z,10.93
2023-10-06T02:07:48.605Z,10.88
2023-10-06T02:10:16.885Z,10.77
2023-10-06T02:12:43.593Z,10.74
2023-10-06T02:15:13.645Z,10.66
2023-10-06T02:17:45.884Z,10.61
2023-10-06T02:20:30.035Z,10.53
2023-10-06T02:23:01.422Z,10.49
2023-10-06T02:25:29.097Z,10.44
2023-10-06T02:27:57.900Z,10.33
2023-10-06T02:30:48.208Z,10.39
2023-10-06T02:33:14.759Z,10.34
2023-10-06T02:35:47.562Z,10.29
2023-10-06T02:38:14.504Z,10.25
2023-10-06T02:40:50.073Z,10.20
2023-10-06T02:43:21.461Z,10.22
2023-10-06T02:45:48.146Z,10.18
2023-10-06T02:48:18.661Z,10.11
2023-10-06T02:50:50.672Z,10.12
2023-10-06T02:53:22.068Z,10.06
2023-10-06T02:55:56.975Z,10.01
2023-10-06T02:58:29.144Z,9.98
2023-10-06T03:00:57.351Z,9.97
2023-10-06T03:03:34.988Z,9.90
2023-10-06T03:06:08.728Z,9.88
2023-10-06T03:08:36.817Z,9.88
2023-10-06T03:11:04.416Z,9.83
2023-10-06T03:13:35.092Z,9.82
2023-10-06T03:16:02.456Z,9.75
2023-10-06T03:18:31.854Z,9.78
2023-10-06T03:21:06.146Z,9.84
2023-10-06T03:23:32.972Z,9.76
2023-10-06T03:25:59.735Z,9.87
2023-10-06T03:28:34.257Z,10.02
2023-10-06T03:31:06.167Z,10.20
2023-10-06T03:33:33.355Z,10.26
2023-10-06T03:35:59.979Z,10.41
2023-10-06T03:38:29.281Z,10.46
2023-10-06T03:40:59.346Z,10.57
2023-10-06T03:43:44.416Z,10.62
2023-10-06T03:46:15.601Z,10.59
2023-10-06T03:48:42.353Z,10.57
2023-10-06T03:51:09.044Z,10.61
2023-10-06T03:53:36.041Z,10.60
2023-10-06T03:56:02.726Z,10.57
2023-10-06T03:58:29.760Z,10.60
2023-10-06T04:00:56.661Z,10.52
2023-10-06T04:03:24.400Z,10.53
2023-10-06T04:05:52.659Z,10.51
2023-10-06T04:08:22.835Z,10.43
2023-10-06T04:10:53.226Z,10.36
2023-10-06T04:13:21.357Z,10.33
2023-10-06T04:15:51.929Z,10.33
2023-10-06T04:18:20.604Z,10.34
2023-10-06T04:20:47.565Z,10.31
2023-10-06T04:23:16.119Z,10.22
2023-10-06T04:25:43.086Z,10.17
2023-10-06T04:28:14.996Z,10.19
2023-10-06T04:30:44.164Z,10.23
2023-10-06T04:33:12.935Z,10.25
2023-10-06T04:35:49.214Z,10.41
2023-10-06T04:38:16.128Z,10.49
2023-10-06T04:40:43.052Z,10.63
2023-10-06T04:43:11.000Z,10.61
2023-10-06T04:45:40.172Z,10.77
2023-10-06T04:48:09.390Z,10.71
2023-10-06T04:50:36.764Z,10.77
2023-10-06T04:53:07.314Z,10.77
2023-10-06T04:55:39.017Z,10.80
2023-10-06T04:58:16.244Z,10.88
2023-10-06T05:00:43.600Z,10.83
2023-10-06T05:03:12.659Z,10.89
2023-10-06T05:05:39.925Z,10.80
2023-10-06T05:08:11.189Z,10.66
2023-10-06T05:10:38.467Z,10.71
2023-10-06T05:13:07.507Z,10.67
2023-10-06T05:15:38.313Z,10.68
2023-10-06T05:18:05.955Z,10.73
2023-10-06T05:20:35.080Z,10.71
2023-10-06T05:23:06.751Z,10.67
2023-10-06T05:25:34.457Z,10.53
2023-10-06T05:28:01.376Z,10.46
2023-10-06T05:30:28.818Z,10.35
2023-10-06T05:32:59.490Z,10.39
2023-10-06T05:35:27.241Z,10.49
2023-10-06T05:37:54.590Z,10.45
2023-10-06T05:40:21.897Z,10.51
2023-10-06T05:42:50.795Z,10.56
2023-10-06T05:45:19.718Z,10.65
2023-10-06T05:47:48.992Z,10.64
2023-10-06T05:50:31.221Z,10.68
2023-10-06T05:53:14.450Z,10.66
2023-10-06T05:55:44.772Z,10.75
2023-10-06T05:58:15.794Z,10.80
2023-10-06T06:00:52.619Z,10.89
2023-10-06T06:03:23.110Z,10.91
2023-10-06T06:05:58.980Z,10.95
2023-10-06T06:08:25.691Z,10.94
2023-10-06T06:10:52.456Z,10.97
2023-10-06T06:13:21.071Z,10.98
2023-10-06T06:15:52.262Z,11.00
2023-10-06T06:18:18.993Z,11.13
2023-10-06T06:20:47.339Z,11.18
2023-10-06T06:23:15.319Z,11.27
2023-10-06T06:25:43.499Z,11.27
2023-10-06T06:28:13.552Z,11.35
2023-10-06T06:30:41.331Z,11.43
2023-10-06T06:33:20.353Z,11.56
2023-10-06T06:35:47.545Z,11.64
2023-10-06T06:38:14.882Z,11.69
2023-10-06T06:40:42.455Z,11.76
2023-10-06T06:43:11.213Z,11.82
2023-10-06T06:45:41.501Z,11.97
2023-10-06T06:48:14.952Z,12.10
2023-10-06T06:50:45.749Z,12.24
2023-10-06T06:53:13.488Z,12.37
2023-10-06T06:55:43.028Z,12.58
2023-10-06T06:58:12.834Z,12.72
2023-10-06T07:00:42.938Z,12.87
2023-10-06T07:03:12.317Z,13.15
2023-10-06T07:05:39.982Z,13.38
2023-10-06T07:08:06.955Z,13.64
2023-10-06T07:10:34.360Z,13.89
2023-10-06T07:13:02.125Z,14.19
2023-10-06T07:15:30.621Z,14.42
2023-10-06T07:17:59.512Z,14.64
2023-10-06T07:20:29.244Z,14.62
2023-10-06T07:22:57.626Z,14.91
2023-10-06T07:25:27.608Z,15.09
2023-10-06T07:27:56.695Z,15.53
2023-10-06T07:30:25.301Z,15.73
2023-10-06T07:32:54.185Z,15.81
2023-10-06T07:35:29.069Z,15.92
2023-10-06T07:37:55.951Z,16.15
2023-10-06T07:40:22.802Z,16.24
2023-10-06T07:42:53.337Z,16.22
2023-10-06T07:45:23.487Z,16.29
2023-10-06T07:47:51.924Z,16.22
2023-10-06T07:50:18.782Z,16.29
2023-10-06T07:52:48.213Z,16.37
2023-10-06T07:55:17.136Z,16.55
2023-10-06T07:57:47.022Z,16.69
2023-10-06T08:00:36.633Z,16.73
2023-10-06T08:03:05.164Z,17.21
2023-10-06T08:05:32.397Z,17.21
2023-10-06T08:08:00.439Z,17.59
2023-10-06T08:10:29.273Z,17.86
2023-10-06T08:12:58.046Z,17.79
2023-10-06T08:15:29.239Z,17.59
2023-10-06T08:17:58.071Z,18.18
2023-10-06T08:20:27.200Z,18.27
2023-10-06T08:22:54.614Z,18.52
2023-10-06T08:25:23.926Z,18.39
2023-10-06T08:27:51.716Z,18.30
2023-10-06T08:30:22.683Z,18.53
2023-10-06T08:32:53.830Z,18.32
2023-10-06T08:35:21.991Z,18.35
2023-10-06T08:37:51.404Z,18.40
2023-10-06T08:40:28.350Z,18.65
2023-10-06T08:42:57.679Z,18.82
2023-10-06T08:45:27.100Z,18.97
2023-10-06T08:48:03.424Z,18.96
2023-10-06T08:50:34.560Z,18.68
2023-10-06T08:53:06.591Z,18.79
2023-10-06T08:55:34.511Z,18.73
2023-10-06T08:58:04.568Z,18.61
2023-10-06T09:00:36.683Z,18.83
2023-10-06T09:03:10.965Z,18.85
2023-10-06T09:05:47.664Z,19.24
2023-10-06T09:08:16.788Z,19.57
2023-10-06T09:10:53.583Z,19.51
2023-10-06T09:13:22.704Z,19.58
2023-10-06T09:16:08.026Z,19.67
2023-10-06T09:18:41.340Z,19.75
2023-10-06T09:21:22.594Z,20.09
2023-10-06T09:23:50.861Z,20.21
2023-10-06T09:26:32.924Z,20.16
2023-10-06T09:29:03.866Z,20.26
2023-10-06T09:31:38.960Z,20.51
2023-10-06T09:34:11.292Z,19.71
2023-10-06T09:36:47.667Z,19.86
2023-10-06T09:39:27.508Z,20.28
2023-10-06T09:41:55.657Z,20.34
2023-10-06T09:44:24.390Z,20.85
2023-10-06T09:46:55.076Z,20.74
2023-10-06T09:49:23.282Z,20.89
2023-10-06T09:51:53.147Z,21.11
2023-10-06T09:54:21.881Z,21.03
2023-10-06T09:56:49.431Z,20.93
2023-10-06T09:59:17.380Z,20.62
2023-10-06T10:01:44.416Z,20.28
2023-10-06T10:04:13.149Z,20.29
2023-10-06T10:06:45.774Z,20.43
2023-10-06T10:09:19.235Z,20.70
2023-10-06T10:11:54.526Z,20.89
2023-10-06T10:15:04.310Z,20.93
2023-10-06T10:17:55.295Z,21.02
2023-10-06T10:20:26.953Z,20.85
2023-10-06T10:22:57.619Z,21.02
2023-10-06T10:25:25.851Z,21.53
2023-10-06T10:28:11.976Z,21.53
2023-10-06T10:30:58.358Z,21.68
2023-10-06T10:33:26.892Z,21.19
2023-10-06T10:36:16.485Z,21.12
2023-10-06T10:38:43.647Z,20.92
2023-10-06T10:41:12.737Z,20.84
2023-10-06T10:43:44.451Z,21.13
2023-10-06T10:46:14.080Z,21.25
2023-10-06T10:48:49.127Z,21.12
2023-10-06T10:51:16.537Z,21.42
2023-10-06T10:53:45.368Z,21.40
2023-10-06T10:56:16.445Z,21.24
2023-10-06T10:58:43.261Z,20.96
2023-10-06T11:01:52.870Z,20.86
2023-10-06T11:04:30.229Z,20.65
2023-10-06T11:07:11.566Z,20.35
2023-10-06T11:09:42.450Z,20.69
2023-10-06T11:12:31.952Z,20.62
2023-10-06T11:15:26.031Z,20.96
2023-10-06T11:17:56.846Z,20.93
2023-10-06T11:20:24.257Z,20.90
2023-10-06T11:23:01.512Z,20.75
2023-10-06T11:25:30.266Z,20.80
2023-10-06T11:28:11.090Z,20.91
2023-10-06T11:30:40.372Z,20.81
2023-10-06T11:33:13.123Z,20.34
2023-10-06T11:35:42.111Z,20.38
2023-10-06T11:38:17.204Z,20.59
2023-10-06T11:40:44.329Z,20.34
2023-10-06T11:43:14.685Z,20.41
2023-10-06T11:45:43.377Z,20.77
2023-10-06T11:48:27.172Z,21.18
2023-10-06T11:51:08.846Z,21.15
2023-10-06T11:53:38.038Z,21.22
2023-10-06T11:56:16.831Z,21.04
2023-10-06T11:58:45.782Z,20.54
2023-10-06T12:01:38.567Z,20.03
2023-10-06T12:04:06.930Z,20.01
2023-10-06T12:06:40.318Z,19.86
2023-10-06T12:09:09.787Z,19.99
2023-10-06T12:11:36.919Z,20.27
2023-10-06T12:14:05.275Z,20.19
2023-10-06T12:16:32.313Z,20.50
2023-10-06T12:18:59.740Z,20.76
2023-10-06T12:21:26.492Z,21.00
2023-10-06T12:23:53.715Z,21.02
2023-10-06T12:26:20.415Z,20.84
2023-10-06T12:28:47.627Z,21.01
2023-10-06T12:31:14.600Z,20.99
2023-10-06T12:33:41.493Z,20.53
2023-10-06T12:36:10.484Z,19.97
2023-10-06T12:38:37.514Z,19.93
2023-10-06T12:41:08.657Z,20.21
2023-10-06T12:43:37.359Z,20.13
2023-10-06T12:46:05.619Z,19.93
2023-10-06T12:48:33.679Z,19.60
2023-10-06T12:51:00.541Z,19.84
2023-10-06T12:53:27.443Z,20.17
2023-10-06T12:55:57.904Z,20.34
2023-10-06T12:58:24.880Z,20.75
2023-10-06T13:00:52.002Z,20.73
2023-10-06T13:03:18.713Z,20.34
2023-10-06T13:05:47.046Z,20.60
2023-10-06T13:08:26.338Z,20.55
2023-10-06T13:10:55.255Z,20.13
2023-10-06T13:13:22.192Z,20.05
2023-10-06T13:15:48.989Z,20.18
2023-10-06T13:18:19.127Z,20.02
2023-10-06T13:20:46.968Z,19.97
2023-10-06T13:23:14.087Z,19.83
2023-10-06T13:25:42.910Z,19.91
2023-10-06T13:28:19.488Z,19.79
2023-10-06T13:30:47.247Z,19.87
2023-10-06T13:33:15.875Z,19.93
2023-10-06T13:35:45.121Z,20.02
2023-10-06T13:38:14.033Z,19.97
2023-10-06T13:40:41.797Z,20.09
2023-10-06T13:43:08.884Z,20.16
2023-10-06T13:45:35.980Z,19.94
2023-10-06T13:48:05.225Z,19.96
2023-10-06T13:50:32.608Z,19.86
2023-10-06T13:52:59.510Z,19.62
2023-10-06T13:55:26.330Z,19.64
2023-10-06T13:57:54.594Z,19.48
2023-10-06T14:00:31.351Z,19.30
2023-10-06T14:03:01.232Z,19.31
2023-10-06T14:05:32.506Z,19.42
2023-10-06T14:08:05.397Z,19.39
2023-10-06T14:10:33.339Z,19.27
2023-10-06T14:13:06.612Z,19.36
2023-10-06T14:15:42.581Z,19.37
2023-10-06T14:18:13.950Z,19.46
2023-10-06T14:20:51.319Z,19.46
2023-10-06T14:23:21.465Z,19.14
2023-10-06T14:25:48.271Z,19.10
2023-10-06T14:28:15.054Z,19.06
2023-10-06T14:30:44.612Z,18.95
2023-10-06T14:33:16.109Z,19.11
2023-10-06T14:35:59.202Z,18.99
2023-10-06T14:38:34.188Z,18.89
2023-10-06T14:41:21.567Z,18.79
2023-10-06T14:44:14.617Z,18.68
2023-10-06T14:46:44.124Z,18.71
2023-10-06T14:49:14.774Z,18.59
2023-10-06T14:51:43.307Z,18.66
2023-10-06T14:54:12.595Z,18.59
2023-10-06T14:56:39.888Z,18.69
2023-10-06T14:59:10.095Z,18.70
2023-10-06T15:01:41.649Z,18.74
2023-10-06T15:07:00.385Z,18.60
2023-10-06T15:09:27.950Z,18.60
2023-10-06T15:11:54.801Z,18.37
2023-10-06T15:14:26.742Z,18.54
2023-10-06T15:16:54.851Z,18.44
2023-10-06T15:19:26.665Z,18.33
2023-10-06T15:21:56.348Z,18.44
2023-10-06T15:24:23.552Z,18.38
2023-10-06T15:26:51.529Z,18.40
2023-10-06T15:29:22.606Z,18.33
2023-10-06T15:31:50.767Z,18.15
2023-10-06T15:34:20.705Z,18.31
2023-10-06T15:36:47.279Z,18.19
2023-10-06T15:39:21.302Z,18.36
2023-10-06T15:41:49.915Z,18.29
2023-10-06T15:44:18.156Z,18.23
2023-10-06T15:46:46.398Z,18.01
2023-10-06T15:49:17.169Z,18.06
2023-10-06T15:51:48.657Z,18.00
2023-10-06T15:54:17.534Z,17.99
2023-10-06T15:56:45.149Z,17.84
2023-10-06T15:59:16.713Z,17.78
2023-10-06T16:01:45.877Z,17.74
2023-10-06T16:04:15.355Z,17.62
2023-10-06T16:06:44.631Z,17.68
2023-10-06T16:09:17.244Z,17.52
2023-10-06T16:11:44.679Z,17.52
2023-10-06T16:14:12.321Z,17.40
2023-10-06T16:16:39.034Z,17.32
2023-10-06T16:19:06.220Z,17.30
2023-10-06T16:21:34.531Z,17.23
2023-10-06T16:24:01.822Z,17.23
2023-10-06T16:26:31.593Z,17.15
2023-10-06T16:29:02.270Z,17.13
2023-10-06T16:31:30.761Z,17.08
2023-10-06T16:33:58.613Z,17.01
2023-10-06T16:36:25.577Z,17.00
2023-10-06T16:38:52.559Z,16.87
2023-10-06T16:41:22.953Z,16.86
2023-10-06T16:43:59.257Z,16.88
2023-10-06T16:46:26.717Z,16.75
2023-10-06T16:48:53.764Z,16.73
2023-10-06T16:51:21.626Z,16.67
2023-10-06T16:53:49.993Z,16.67
2023-10-06T16:56:17.362Z,16.71
2023-10-06T16:58:44.243Z,16.63
2023-10-06T17:01:11.264Z,16.56
2023-10-06T17:03:38.703Z,16.62
2023-10-06T17:06:07.667Z,16.57
2023-10-06T17:08:34.782Z,16.62
2023-10-06T17:11:12.780Z,16.60
2023-10-06T17:13:39.378Z,16.49
2023-10-06T17:16:10.691Z,16.41
2023-10-06T17:18:37.940Z,16.40
2023-10-06T17:21:08.300Z,16.39
2023-10-06T17:23:35.487Z,16.40
2023-10-06T17:26:03.610Z,16.42
2023-10-06T17:28:31.397Z,16.38
2023-10-06T17:31:02.332Z,16.46
2023-10-06T17:33:30.313Z,16.43
2023-10-06T17:36:00.243Z,16.34
2023-10-06T17:38:27.145Z,16.36
2023-10-06T17:41:00.569Z,16.25
2023-10-06T17:43:28.116Z,16.25
2023-10-06T17:45:56.246Z,16.21
2023-10-06T17:48:24.904Z,16.18
2023-10-06T17:50:51.758Z,16.14
2023-10-06T17:53:18.524Z,16.15
2023-10-06T17:55:53.553Z,16.14
2023-10-06T17:58:21.403Z,16.06
2023-10-06T18:00:48.755Z,16.02
2023-10-06T18:03:18.765Z,16.01
2023-10-06T18:05:49.206Z,16.05
2023-10-06T18:08:17.520Z,16.07
2023-10-06T18:10:44.910Z,16.00
2023-10-06T18:13:12.166Z,16.02
2023-10-06T18:15:39.036Z,15.96
2023-10-06T18:18:05.981Z,15.94
2023-10-06T18:20:39.589Z,15.83
2023-10-06T18:23:07.096Z,15.87
2023-10-06T18:25:37.264Z,15.74
2023-10-06T18:28:05.292Z,15.68
2023-10-06T18:30:32.601Z,15.64
2023-10-06T18:32:59.766Z,15.68
2023-10-06T18:35:26.535Z,15.65
2023-10-06T18:37:54.588Z,15.70
2023-10-06T18:40:21.727Z,15.68
2023-10-06T18:42:48.736Z,15.62
2023-10-06T18:45:15.546Z,15.65
2023-10-06T18:47:42.359Z,15.69
2023-10-06T18:50:30.351Z,15.71
2023-10-06T18:52:57.118Z,15.71
2023-10-06T18:55:24.397Z,15.89
2023-10-06T18:57:52.257Z,15.74
2023-10-06T19:00:23.736Z,15.69
2023-10-06T19:02:51.948Z,15.70
2023-10-06T19:05:19.315Z,15.70
2023-10-06T19:07:46.092Z,15.75
2023-10-06T19:10:15.860Z,15.82
2023-10-06T19:12:43.387Z,15.88
2023-10-06T19:15:10.366Z,15.92
2023-10-06T19:17:40.718Z,16.01
2023-10-06T19:20:09.083Z,16.01
2023-10-06T19:22:35.946Z,15.98
2023-10-06T19:25:03.053Z,16.05
2023-10-06T19:27:29.862Z,16.05
2023-10-06T19:29:56.445Z,16.10
2023-10-06T19:32:24.964Z,16.06
2023-10-06T19:34:52.936Z,16.10
2023-10-06T19:37:21.090Z,16.13
2023-10-06T19:39:47.920Z,16.11
2023-10-06T19:42:14.859Z,16.14
2023-10-06T19:44:44.707Z,16.02
2023-10-06T19:47:14.125Z,16.13
2023-10-06T19:49:41.358Z,16.14
2023-10-06T19:52:09.462Z,16.08
2023-10-06T19:54:36.897Z,16.06
2023-10-06T19:57:03.893Z,16.03
2023-10-06T19:59:33.943Z,16.04
2023-10-06T20:02:02.410Z,15.90
2023-10-06T20:04:29.346Z,15.92
2023-10-06T20:06:56.142Z,15.89
2023-10-06T20:09:25.485Z,15.86
2023-10-06T20:11:52.324Z,15.86
2023-10-06T20:14:19.121Z,15.87
2023-10-06T20:16:46.082Z,15.92
2023-10-06T20:19:17.286Z,15.87
2023-10-06T20:21:44.615Z,15.84
2023-10-06T20:24:13.502Z,15.86
2023-10-06T20:26:44.644Z,15.80
2023-10-06T20:29:11.811Z,15.74
2023-10-06T20:31:39.814Z,15.71
2023-10-06T20:34:07.335Z,15.76
2023-10-06T20:36:35.374Z,15.69
2023-10-06T20:39:09.857Z,15.82
2023-10-06T20:41:41.507Z,15.80
2023-10-06T20:44:12.730Z,15.78
2023-10-06T20:46:41.373Z,15.81
2023-10-06T20:49:13.261Z,15.81
2023-10-06T20:51:40.096Z,15.75
2023-10-06T20:54:08.191Z,15.72
2023-10-06T20:56:34.970Z,15.70
2023-10-06T20:59:01.917Z,15.73
2023-10-06T21:01:31.888Z,15.70
2023-10-06T21:04:05.214Z,15.59
2023-10-06T21:06:35.758Z,15.69
2023-10-06T21:09:05.835Z,15.49
2023-10-06T21:11:38.117Z,15.45
2023-10-06T21:14:05.920Z,15.37
2023-10-06T21:16:33.280Z,15.41
2023-10-06T21:19:00.259Z,15.47
2023-10-06T21:21:27.254Z,15.51
2023-10-06T21:23:54.139Z,15.62
2023-10-06T21:26:24.043Z,15.60
2023-10-06T21:28:53.954Z,15.58
2023-10-06T21:31:20.659Z,15.52
2023-10-06T21:33:49.055Z,15.49
2023-10-06T21:36:15.992Z,15.50
2023-10-06T21:38:42.678Z,15.48
2023-10-06T21:41:09.459Z,15.42
2023-10-06T21:43:36.407Z,15.46
2023-10-06T21:46:06.803Z,15.55
2023-10-06T21:48:34.064Z,15.53
2023-10-06T21:51:01.363Z,15.56
2023-10-06T21:53:28.233Z,15.53
2023-10-06T21:55:55.170Z,15.57
2023-10-06T21:58:22.045Z,15.55
2023-10-06T22:00:55.425Z,15.58
2023-10-06T22:03:22.195Z,15.68
2023-10-06T22:05:48.955Z,15.64
2023-10-06T22:08:15.716Z,15.53
2023-10-06T22:10:42.466Z,15.54
2023-10-06T22:13:09.278Z,15.49
2023-10-06T22:15:37.223Z,15.58
2023-10-06T22:18:06.160Z,15.57
2023-10-06T22:20:32.896Z,15.49
2023-10-06T22:23:00.462Z,15.61
2023-10-06T22:25:28.628Z,15.61
2023-10-06T22:27:56.269Z,15.57
2023-10-06T22:30:24.333Z,15.60
2023-10-06T22:32:51.170Z,15.68
2023-10-06T22:35:17.959Z,15.69
2023-10-06T22:37:44.752Z,15.61
2023-10-06T22:40:18.355Z,15.70
2023-10-06T22:42:49.049Z,15.63
2023-10-06T22:45:20.343Z,15.61
2023-10-06T22:47:51.694Z,15.48
2023-10-06T22:50:20.587Z,15.53
2023-10-06T22:52:49.080Z,15.43
2023-10-06T22:55:17.931Z,15.53
2023-10-06T22:57:45.759Z,15.54
2023-10-06T23:00:18.402Z,15.56
2023-10-06T23:02:45.986Z,15.51
2023-10-06T23:05:16.210Z,15.48
2023-10-06T23:07:43.639Z,15.58
2023-10-06T23:10:14.448Z,15.51
2023-10-06T23:12:52.133Z,15.46
2023-10-06T23:15:20.217Z,15.49
2023-10-06T23:17:47.049Z,15.61
2023-10-06T23:20:23.671Z,15.52
2023-10-06T23:22:54.597Z,15.51
2023-10-06T23:25:24.072Z,15.52
2023-10-06T23:27:51.731Z,15.53
2023-10-06T23:30:18.919Z,15.48
2023-10-06T23:32:50.810Z,15.61
2023-10-06T23:35:18.666Z,15.45
2023-10-06T23:37:51.260Z,15.48
2023-10-06T23:40:24.087Z,15.57
2023-10-06T23:42:56.710Z,15.69
2023-10-06T23:45:30.898Z,15.60
2023-10-06T23:47:58.979Z,15.62
2023-10-06T23:50:30.343Z,15.66
2023-10-06T23:53:01.613Z,15.74
2023-10-06T23:55:28.892Z,15.74
2023-10-06T23:57:56.048Z,15.76
